Time;durP1;ratioP1;P1;durP2;ratioP2;P2;SDS_P1;SDS_P2;PMS_P1;PMS_P2;Temp;Humidity;BMP_temperature;BMP_pressure;BME280_temperature;BME280_humidity;BME280_pressure;Samples;Min_cycle;Max_cycle;Signal;HPM_P1;HPM_P2
2023/09/25 00:02:24;;;;;;;1032.63;957.47;;;;;;;16.91;59.08;99356.59;4907940;28;104096;-62
2023/09/25 00:04:51;;;;;;;1200.65;999.90;;;;;;;17.65;56.60;99353.44;4919312;28;103197;-62
2023/09/25 00:07:19;;;;;;;1006.75;931.38;;;;;;;16.47;59.03;99361.28;4907027;28;105179;-63
2023/09/25 00:09:47;;;;;;;1289.25;999.90;;;;;;;16.53;58.58;99352.75;4912926;28;103916;-63
2023/09/25 00:12:15;;;;;;;1300.05;999.90;;;;;;;16.46;59.67;99354.25;4909961;28;103382;-62
2023/09/25 00:14:45;;;;;;;1245.95;999.90;;;;;;;16.78;58.41;99357.69;4911214;28;103178;-62
2023/09/25 00:17:13;;;;;;;1134.80;999.90;;;;;;;16.43;58.53;99353.66;4911404;28;102905;-63
2023/09/25 00:19:41;;;;;;;1126.50;999.90;;;;;;;17.40;56.81;99349.41;4909622;28;104073;-62
2023/09/25 00:22:09;;;;;;;778.63;726.63;;;;;;;17.10;57.07;99348.63;4906343;28;104443;-63
2023/09/25 00:24:37;;;;;;;672.60;624.70;;;;;;;17.60;55.32;99349.50;4912942;28;104051;-62
2023/09/25 00:27:06;;;;;;;300.17;283.45;;;;;;;17.37;55.33;99348.88;4904146;28;102741;-62
2023/09/25 00:29:34;;;;;;;632.65;593.78;;;;;;;17.25;56.21;99345.47;4907743;28;104006;-62
2023/09/25 00:32:03;;;;;;;601.90;561.40;;;;;;;17.32;55.69;99343.06;4912366;28;104478;-62
2023/09/25 00:34:34;;;;;;;650.65;608.55;;;;;;;16.75;56.30;99349.94;4911828;28;103171;-63
2023/09/25 00:37:02;;;;;;;1022.63;941.75;;;;;;;16.16;58.15;99348.88;4911154;28;102620;-62
2023/09/25 00:39:29;;;;;;;1999.90;999.90;;;;;;;15.97;61.01;99343.41;4909015;28;103727;-63
2023/09/25 00:41:58;;;;;;;1173.88;999.90;;;;;;;16.84;57.27;99340.28;4906818;28;103910;-62
2023/09/25 00:44:25;;;;;;;921.05;856.33;;;;;;;17.06;57.62;99341.91;4909418;28;103427;-62
2023/09/25 00:46:53;;;;;;;563.45;532.65;;;;;;;16.04;58.78;99340.09;4904209;28;103017;-62
2023/09/25 00:49:23;;;;;;;805.15;748.63;;;;;;;17.07;56.70;99343.56;4906888;28;102833;-63
2023/09/25 00:51:51;;;;;;;648.25;610.55;;;;;;;16.54;57.25;99346.47;4909009;28;103569;-63
2023/09/25 00:54:19;;;;;;;735.33;683.70;;;;;;;17.20;56.09;99341.53;4908664;28;104295;-62
2023/09/25 00:57:07;;;;;;;153.90;146.07;;;;;;;16.71;55.23;99351.19;4908534;28;104112;-63
2023/09/25 00:59:37;;;;;;;583.00;548.63;;;;;;;17.19;56.22;99342.50;4911936;28;102737;-63
2023/09/25 01:02:07;;;;;;;365.80;344.83;;;;;;;16.64;56.08;99351.84;4909935;28;104169;-63
2023/09/25 01:04:36;;;;;;;655.50;616.60;;;;;;;16.40;57.21;99357.44;4915209;28;103303;-63
2023/09/25 01:07:05;;;;;;;913.05;853.47;;;;;;;16.01;58.14;99355.50;4909101;28;102692;-63
2023/09/25 01:09:33;;;;;;;1239.57;999.90;;;;;;;16.17;58.34;99340.75;4907920;28;104120;-63
2023/09/25 01:12:02;;;;;;;1318.32;999.90;;;;;;;16.19;58.87;99348.63;4902056;28;104409;-63
2023/09/25 01:14:30;;;;;;;1034.93;951.20;;;;;;;16.79;56.72;99348.69;4909006;28;102947;-63
2023/09/25 01:16:58;;;;;;;719.28;669.88;;;;;;;16.91;56.17;99352.09;4908247;28;102708;-62
2023/09/25 01:19:31;;;;;;;1194.80;999.90;;;;;;;15.32;62.06;99354.16;4909665;28;102667;-63
2023/09/25 01:22:00;;;;;;;1267.70;999.90;;;;;;;16.53;58.39;99346.56;4908875;28;104199;-63
2023/09/25 01:24:28;;;;;;;684.75;646.13;;;;;;;16.02;57.97;99346.53;4910378;28;103432;-63
2023/09/25 01:26:56;;;;;;;1136.70;999.90;;;;;;;16.06;59.15;99347.94;4908635;28;103230;-63
2023/09/25 01:29:24;;;;;;;766.27;715.83;;;;;;;16.85;56.33;99335.78;4904148;28;103534;-63
2023/09/25 01:31:52;;;;;;;825.87;775.60;;;;;;;15.57;59.97;99336.09;4903905;28;103778;-62
2023/09/25 01:34:20;;;;;;;1110.25;999.90;;;;;;;16.55;58.13;99340.16;4905840;28;103285;-63
2023/09/25 01:36:50;;;;;;;419.30;395.67;;;;;;;16.79;55.18;99337.16;4908446;28;103873;-63
2023/09/25 01:39:20;;;;;;;507.25;483.75;;;;;;;15.52;59.20;99338.25;4911853;28;102911;-63
2023/09/25 01:41:48;;;;;;;1548.00;999.90;;;;;;;16.07;60.35;99328.34;4909383;28;103259;-63
2023/09/25 01:44:18;;;;;;;877.43;817.23;;;;;;;16.30;57.50;99327.22;4906773;28;103070;-63
2023/09/25 01:46:46;;;;;;;815.05;761.78;;;;;;;15.51;59.72;99317.94;4909850;28;102657;-63
2023/09/25 01:49:16;;;;;;;1133.43;999.90;;;;;;;15.28;60.24;99315.44;4905043;28;107339;-63
2023/09/25 01:51:44;;;;;;;997.65;917.28;;;;;;;15.75;58.33;99314.22;4902093;28;103325;-63
2023/09/25 01:54:12;;;;;;;636.70;602.22;;;;;;;15.02;60.62;99312.22;4909393;28;103195;-63
2023/09/25 01:56:42;;;;;;;1212.93;999.90;;;;;;;14.64;63.61;99304.69;4909405;28;102724;-62
2023/09/25 01:59:10;;;;;;;942.00;870.38;;;;;;;15.63;59.77;99298.28;4904727;28;104313;-63
2023/09/25 02:01:37;;;;;;;471.63;447.80;;;;;;;15.60;58.37;99301.22;4904178;28;104210;-63
2023/09/25 02:04:06;;;;;;;619.38;585.40;;;;;;;16.12;58.38;99302.13;4907682;28;104237;-62
2023/09/25 02:06:35;;;;;;;468.67;445.92;;;;;;;15.41;59.22;99297.50;4905468;28;102663;-63
2023/09/25 02:09:05;;;;;;;1041.30;953.08;;;;;;;16.08;59.14;99316.69;4909354;28;102864;-62
2023/09/25 02:11:33;;;;;;;1032.90;948.15;;;;;;;16.03;59.23;99311.75;4904303;28;104115;-63
2023/09/25 02:14:02;;;;;;;553.38;519.30;;;;;;;16.70;56.84;99309.47;4907617;28;103390;-63
2023/09/25 02:16:30;;;;;;;135.73;129.82;;;;;;;16.93;55.26;99309.25;4907834;28;102666;-63
2023/09/25 02:18:58;;;;;;;52.65;50.45;;;;;;;16.80;54.47;99312.19;4913198;28;102836;-62
2023/09/25 02:21:26;;;;;;;227.63;218.27;;;;;;;15.11;60.94;99316.81;4903885;28;104041;-62
2023/09/25 02:23:54;;;;;;;890.85;826.70;;;;;;;15.98;57.44;99303.31;4908259;28;103177;-63
2023/09/25 02:26:22;;;;;;;881.45;823.30;;;;;;;14.84;60.87;99308.41;4907279;28;102823;-63
2023/09/25 02:28:49;;;;;;;1116.18;999.90;;;;;;;16.01;58.85;99307.53;4905889;28;104154;-62
2023/09/25 02:31:20;;;;;;;504.98;474.25;;;;;;;16.36;56.58;99307.19;4909188;28;104046;-63
2023/09/25 02:33:48;;;;;;;520.17;492.50;;;;;;;16.06;57.93;99310.63;4912488;28;103211;-63
2023/09/25 02:36:16;;;;;;;829.83;774.63;;;;;;;14.42;62.50;99313.50;4908051;28;102716;-63
2023/09/25 02:38:44;;;;;;;1237.17;999.90;;;;;;;14.68;62.26;99313.28;4909304;28;103531;-62
2023/09/25 02:41:12;;;;;;;1008.72;933.42;;;;;;;14.41;63.24;99298.50;4905728;28;104456;-63
2023/09/25 02:43:42;;;;;;;723.00;678.93;;;;;;;15.37;61.16;99296.06;4908276;28;103166;-64
2023/09/25 02:46:09;;;;;;;233.38;223.23;;;;;;;16.02;58.04;99295.91;4906713;28;102695;-63
2023/09/25 02:48:39;;;;;;;223.27;214.80;;;;;;;15.75;57.95;99295.56;4910499;28;106200;-64
2023/09/25 02:51:07;;;;;;;222.40;213.20;;;;;;;16.17;57.01;99292.75;4906809;28;103477;-64
2023/09/25 02:53:35;;;;;;;164.23;157.70;;;;;;;16.10;56.47;99285.44;4903652;28;103089;-64
2023/09/25 02:56:02;;;;;;;101.20;97.10;;;;;;;16.03;56.03;99297.56;4909320;28;102935;-64
2023/09/25 02:58:31;;;;;;;153.33;147.20;;;;;;;15.91;55.94;99295.97;4908793;28;103068;-64
2023/09/25 03:01:00;;;;;;;452.17;433.60;;;;;;;14.97;59.08;99299.31;4914975;28;104578;-64
2023/09/25 03:03:29;;;;;;;851.22;797.38;;;;;;;15.51;58.56;99296.66;4901693;28;103228;-64
2023/09/25 03:05:58;;;;;;;927.55;861.60;;;;;;;14.97;60.43;99295.81;4905191;28;102924;-64
2023/09/25 03:08:27;;;;;;;1087.80;997.13;;;;;;;15.10;60.74;99304.50;4901186;28;102924;-64
2023/09/25 03:10:55;;;;;;;744.37;698.50;;;;;;;14.97;59.79;99309.97;4906777;28;103529;-64
2023/09/25 03:13:25;;;;;;;437.57;414.23;;;;;;;15.98;58.28;99302.44;4905349;28;103227;-63
2023/09/25 03:15:52;;;;;;;216.40;207.87;;;;;;;15.45;58.32;99305.09;4912355;28;102787;-64
2023/09/25 03:18:20;;;;;;;270.40;258.83;;;;;;;16.00;57.41;99304.00;4905920;28;103115;-63
2023/09/25 03:20:48;;;;;;;154.43;147.90;;;;;;;16.35;56.09;99303.66;4905301;28;104512;-63
2023/09/25 03:23:17;;;;;;;188.07;180.97;;;;;;;14.76;60.45;99305.53;4904602;28;103274;-63
2023/09/25 03:25:45;;;;;;;1024.70;945.78;;;;;;;14.63;61.27;99310.09;4912673;28;102695;-63
2023/09/25 03:28:13;;;;;;;1024.03;943.13;;;;;;;14.78;60.42;99309.75;4910692;28;103146;-64
2023/09/25 03:30:41;;;;;;;1027.65;949.50;;;;;;;14.79;61.75;99299.97;4902737;28;104501;-64
2023/09/25 03:33:09;;;;;;;789.33;737.47;;;;;;;15.50;60.42;99296.75;4905124;28;103318;-64
2023/09/25 03:35:38;;;;;;;322.67;307.70;;;;;;;15.89;58.31;99297.91;4901974;28;102838;-64
2023/09/25 03:38:06;;;;;;;112.95;107.85;;;;;;;16.10;56.93;99302.28;4911530;28;103953;-63
2023/09/25 03:40:35;;;;;;;62.90;60.10;;;;;;;15.92;56.07;99297.63;4907058;28;104147;-63
2023/09/25 03:43:04;;;;;;;328.98;315.15;;;;;;;14.44;61.43;99295.63;4914572;28;103805;-64
2023/09/25 03:45:32;;;;;;;1045.10;963.03;;;;;;;15.17;61.56;99300.34;4912822;28;102807;-64
2023/09/25 03:48:00;;;;;;;455.80;431.27;;;;;;;15.78;58.65;99289.97;4914611;28;102883;-63
2023/09/25 03:50:28;;;;;;;420.05;400.13;;;;;;;14.92;60.24;99296.19;4906411;28;104156;-63
2023/09/25 03:52:59;;;;;;;542.87;511.77;;;;;;;15.21;58.60;99296.50;4915216;28;103126;-64
2023/09/25 03:55:27;;;;;;;960.97;890.85;;;;;;;14.71;61.92;99292.56;4909929;28;102748;-63
2023/09/25 03:57:57;;;;;;;423.83;400.92;;;;;;;14.81;59.95;99303.34;4910593;28;102845;-63
2023/09/25 04:00:26;;;;;;;465.23;439.77;;;;;;;15.63;59.10;99297.44;4912280;28;104041;-63
2023/09/25 04:02:54;;;;;;;122.93;117.43;;;;;;;15.97;57.19;99296.28;4911860;28;105359;-61
2023/09/25 04:05:23;;;;;;;70.65;67.47;;;;;;;15.84;55.43;99295.63;4910057;28;102646;-64
2023/09/25 04:07:53;;;;;;;83.82;80.15;;;;;;;15.89;56.75;99308.56;4906703;28;103163;-65
2023/09/25 04:10:21;;;;;;;293.03;281.00;;;;;;;14.73;60.95;99308.44;4907747;28;104025;-65
2023/09/25 04:12:49;;;;;;;807.25;747.00;;;;;;;15.49;58.75;99301.25;4906601;28;103174;-66
2023/09/25 04:15:22;;;;;;;270.17;257.25;;;;;;;15.54;56.58;99308.84;4907806;28;102697;-63
2023/09/25 04:17:51;;;;;;;683.17;640.65;;;;;;;14.96;60.10;99312.75;4910851;28;102958;-66
2023/09/25 04:20:24;;;;;;;489.42;462.23;;;;;;;15.70;57.65;99298.63;4907774;28;104231;-63
2023/09/25 04:22:53;;;;;;;268.23;257.38;;;;;;;14.53;59.93;99310.00;4910005;28;103250;-64
2023/09/25 04:25:21;;;;;;;811.33;753.40;;;;;;;15.23;58.64;99293.69;4912367;28;102718;-63
2023/09/25 04:27:51;;;;;;;901.15;835.95;;;;;;;14.84;60.27;99303.09;4909449;28;102756;-63
2023/09/25 04:30:21;;;;;;;592.45;556.88;;;;;;;15.67;58.77;99296.19;4908353;28;103070;-64
2023/09/25 04:32:53;;;;;;;185.57;176.67;;;;;;;16.09;56.85;99299.72;4906099;28;103196;-63
2023/09/25 04:35:23;;;;;;;79.05;75.70;;;;;;;16.05;55.21;99300.97;4901281;28;102690;-63
2023/09/25 04:37:50;;;;;;;54.65;52.28;;;;;;;15.44;56.62;99297.22;4905624;28;103933;-64
2023/09/25 04:40:24;;;;;;;855.60;794.57;;;;;;;14.72;60.61;99302.25;4907131;28;104129;-63
2023/09/25 04:42:54;;;;;;;851.50;793.80;;;;;;;15.41;58.48;99293.00;4903765;28;103211;-63
2023/09/25 04:45:25;;;;;;;178.52;170.10;;;;;;;15.01;57.30;99297.25;4908633;28;102716;-63
2023/09/25 04:47:53;;;;;;;406.70;386.77;;;;;;;14.32;59.68;99296.56;4905372;28;104753;-63
2023/09/25 04:50:23;;;;;;;919.13;851.33;;;;;;;14.39;60.33;99296.94;4905826;28;103662;-62
2023/09/25 04:52:51;;;;;;;754.93;708.53;;;;;;;14.74;59.93;99308.28;4908381;28;103506;-63
2023/09/25 04:55:19;;;;;;;237.15;225.80;;;;;;;15.28;57.55;99308.31;4906401;28;103394;-63
2023/09/25 04:57:48;;;;;;;150.73;144.25;;;;;;;15.48;57.76;99304.88;4911255;28;102800;-62
2023/09/25 05:00:17;;;;;;;83.13;79.43;;;;;;;15.73;56.83;99308.16;4910299;28;104143;-62
2023/09/25 05:02:48;;;;;;;64.82;62.00;;;;;;;15.98;55.60;99307.78;4908751;28;103169;-62
2023/09/25 05:05:19;;;;;;;48.85;46.75;;;;;;;15.88;55.65;99301.56;4912686;28;103150;-62
2023/09/25 05:07:48;;;;;;;68.50;65.63;;;;;;;14.25;59.80;99305.13;4910446;28;102831;-64
2023/09/25 05:10:20;;;;;;;998.80;919.13;;;;;;;14.94;60.19;99314.66;4908608;28;104223;-63
2023/09/25 05:12:48;;;;;;;424.10;396.30;;;;;;;15.56;58.11;99313.09;4903063;28;103254;-63
2023/09/25 05:15:17;;;;;;;122.43;116.68;;;;;;;15.40;57.69;99317.13;4902626;28;102826;-63
2023/09/25 05:17:47;;;;;;;104.53;99.75;;;;;;;15.92;56.31;99313.63;4906094;28;103752;-63
2023/09/25 05:20:19;;;;;;;55.38;52.78;;;;;;;15.81;56.03;99321.69;4902642;28;103669;-63
2023/09/25 05:22:48;;;;;;;74.67;71.50;;;;;;;16.12;55.50;99315.44;4906222;28;103252;-63
2023/09/25 05:25:17;;;;;;;49.13;47.10;;;;;;;16.30;54.66;99313.03;4902151;28;102669;-63
2023/09/25 05:27:47;;;;;;;40.38;38.65;;;;;;;15.95;54.35;99316.88;4903560;28;102700;-63
2023/09/25 05:30:17;;;;;;;53.13;50.70;;;;;;;15.07;57.67;99331.38;4906078;28;103939;-63
2023/09/25 05:32:49;;;;;;;348.40;327.97;;;;;;;15.81;56.48;99319.88;4906537;28;103153;-62
2023/09/25 05:35:18;;;;;;;160.68;152.90;;;;;;;16.17;55.64;99318.56;4904073;28;102868;-63
2023/09/25 05:37:48;;;;;;;88.75;84.97;;;;;;;16.23;54.97;99318.03;4908682;28;104058;-63
2023/09/25 05:40:18;;;;;;;77.87;74.37;;;;;;;16.32;54.87;99325.25;4909149;28;103738;-64
2023/09/25 05:42:47;;;;;;;57.40;55.08;;;;;;;16.53;54.15;99326.09;4906623;28;103974;-64
2023/09/25 05:45:17;;;;;;;44.83;42.85;;;;;;;15.84;55.83;99321.44;4906842;28;103193;-65
2023/09/25 05:47:46;;;;;;;118.23;112.73;;;;;;;16.44;55.39;99321.53;4903866;28;103665;-64
2023/09/25 05:50:14;;;;;;;110.63;105.35;;;;;;;16.36;55.81;99321.38;4908954;28;103678;-64
2023/09/25 05:52:42;;;;;;;218.40;206.98;;;;;;;16.61;55.48;99320.97;4903465;28;103358;-63
2023/09/25 05:55:13;;;;;;;138.90;132.52;;;;;;;16.89;54.83;99315.84;4907631;28;103076;-63
2023/09/25 05:57:41;;;;;;;81.70;78.28;;;;;;;16.91;55.10;99313.88;4904074;28;104137;-63
2023/09/25 06:00:11;;;;;;;60.58;58.08;;;;;;;17.16;54.31;99313.38;4912855;28;103971;-63
2023/09/25 06:02:40;;;;;;;53.90;51.80;;;;;;;17.29;53.89;99306.00;4904795;28;104048;-63
2023/09/25 06:05:12;;;;;;;60.30;57.78;;;;;;;17.40;53.60;99301.34;4910525;28;103122;-63
2023/09/25 06:07:41;;;;;;;58.85;56.17;;;;;;;17.50;53.44;99306.69;4913001;28;103087;-63
2023/09/25 06:10:10;;;;;;;58.20;55.80;;;;;;;17.61;53.59;99309.25;4903289;28;103290;-63
2023/09/25 06:12:39;;;;;;;61.13;58.58;;;;;;;17.23;54.16;99315.41;4911046;28;103254;-63
2023/09/25 06:15:10;;;;;;;72.05;68.68;;;;;;;17.34;54.48;99309.09;4907885;28;102655;-63
2023/09/25 06:17:39;;;;;;;77.53;74.07;;;;;;;17.72;53.77;99310.94;4904225;28;102924;-64
2023/09/25 06:20:15;;;;;;;67.68;64.30;;;;;;;17.70;53.17;99311.09;4910547;28;104135;-63
2023/09/25 06:22:46;;;;;;;57.80;55.10;;;;;;;17.91;52.86;99313.59;4914793;28;102735;-63
2023/09/25 06:25:17;;;;;;;43.88;41.90;;;;;;;18.09;52.25;99308.38;4909276;28;103896;-63
2023/09/25 06:27:45;;;;;;;39.83;37.95;;;;;;;18.20;52.17;99317.09;4904703;28;102671;-63
2023/09/25 06:30:16;;;;;;;30.42;29.13;;;;;;;18.31;52.00;99313.38;4907520;28;104241;-62
2023/09/25 06:32:44;;;;;;;42.67;40.67;;;;;;;18.09;52.35;99313.72;4900077;28;105012;-63
2023/09/25 06:35:14;;;;;;;53.83;51.53;;;;;;;18.02;53.29;99317.97;4906789;28;103105;-63
2023/09/25 06:37:43;;;;;;;60.33;57.85;;;;;;;18.35;53.00;99320.16;4904939;28;102859;-63
2023/09/25 06:40:15;;;;;;;47.50;45.35;;;;;;;18.53;52.38;99319.28;4906561;28;103301;-63
2023/09/25 06:42:44;;;;;;;38.53;36.93;;;;;;;18.67;52.06;99312.59;4909420;28;103266;-63
2023/09/25 06:45:12;;;;;;;35.03;33.42;;;;;;;18.82;51.63;99315.63;4911721;28;102973;-63
2023/09/25 06:47:40;;;;;;;39.25;37.45;;;;;;;18.62;52.44;99322.91;4910657;28;103826;-63
2023/09/25 06:50:10;;;;;;;41.40;39.47;;;;;;;18.94;52.00;99320.66;4909063;28;103252;-63
2023/09/25 06:52:40;;;;;;;34.75;33.15;;;;;;;19.11;51.42;99313.66;4909916;28;103860;-63
2023/09/25 06:55:09;;;;;;;48.87;46.67;;;;;;;18.84;52.22;99316.31;4911280;28;102635;-63
2023/09/25 06:57:37;;;;;;;42.23;40.30;;;;;;;19.19;51.75;99316.44;4909453;28;103782;-63
2023/09/25 07:00:07;;;;;;;37.70;35.90;;;;;;;19.44;51.24;99320.25;4911274;28;103867;-63
2023/09/25 07:02:36;;;;;;;40.17;38.40;;;;;;;19.76;50.64;99315.19;4909669;28;103387;-63
2023/09/25 07:05:04;;;;;;;45.92;43.92;;;;;;;20.12;49.91;99314.16;4914161;28;102739;-62
2023/09/25 07:07:32;;;;;;;48.53;46.23;;;;;;;19.36;50.42;99310.25;4909449;28;103979;-63
2023/09/25 07:10:06;;;;;;;47.72;45.67;;;;;;;18.28;54.56;99309.19;4909660;28;103242;-63
2023/09/25 07:12:34;;;;;;;81.18;77.38;;;;;;;17.84;57.23;99313.34;4910017;28;103277;-63
2023/09/25 07:15:03;;;;;;;220.38;208.05;;;;;;;17.68;56.76;99310.41;4914238;28;103036;-63
2023/09/25 07:17:31;;;;;;;292.92;276.48;;;;;;;17.47;56.76;99309.66;4913841;28;102612;-63
2023/09/25 07:19:59;;;;;;;162.77;155.15;;;;;;;19.07;53.12;99307.75;4910379;28;103816;-63
2023/09/25 07:22:28;;;;;;;58.63;56.05;;;;;;;19.26;52.40;99308.63;4909607;28;103836;-63
2023/09/25 07:24:56;;;;;;;55.23;52.87;;;;;;;20.54;50.36;99310.78;4913836;28;102972;-63
2023/09/25 07:27:27;;;;;;;76.03;72.88;;;;;;;21.20;49.39;99313.59;4907586;28;102587;-62
2023/09/25 07:29:56;;;;;;;74.18;71.10;;;;;;;20.23;49.84;99318.44;4912038;28;103341;-63
2023/09/25 07:32:24;;;;;;;59.40;56.80;;;;;;;20.34;51.12;99315.53;4913035;28;103209;-63
2023/09/25 07:34:52;;;;;;;66.22;63.28;;;;;;;20.36;50.52;99320.72;4909174;28;102872;-62
2023/09/25 07:37:21;;;;;;;64.40;61.42;;;;;;;20.35;51.00;99316.38;4904153;28;104052;-63
2023/09/25 07:39:50;;;;;;;124.70;119.93;;;;;;;22.04;48.41;99303.50;4912149;28;103494;-63
2023/09/25 07:42:19;;;;;;;166.85;160.55;;;;;;;22.91;46.68;99313.44;4911346;28;103187;-62
2023/09/25 07:44:50;;;;;;;263.30;253.68;;;;;;;23.42;45.48;99317.44;4908744;28;102975;-62
2023/09/25 07:47:19;;;;;;;255.45;246.05;;;;;;;22.47;46.36;99327.34;4912247;28;103743;-62
2023/09/25 07:49:47;;;;;;;288.60;277.95;;;;;;;22.95;46.45;99320.16;4907480;28;103672;-62
2023/09/25 07:52:20;;;;;;;322.45;310.15;;;;;;;23.42;45.81;99320.97;4914709;28;104157;-63
2023/09/25 07:54:49;;;;;;;334.02;320.75;;;;;;;23.59;45.59;99311.75;4907287;28;102685;-62
2023/09/25 07:57:20;;;;;;;385.70;369.53;;;;;;;23.93;44.17;99319.44;4911375;28;103996;-62
2023/09/25 07:59:50;;;;;;;406.77;389.55;;;;;;;24.22;44.05;99311.44;4914189;28;103342;-62
2023/09/25 08:02:20;;;;;;;416.20;397.98;;;;;;;24.79;43.64;99317.13;4907959;28;103257;-62
2023/09/25 08:04:50;;;;;;;462.80;442.30;;;;;;;24.08;44.20;99319.50;4913320;28;102904;-62
2023/09/25 08:07:18;;;;;;;485.05;462.70;;;;;;;23.61;44.21;99316.97;4909165;28;103947;-62
2023/09/25 08:09:47;;;;;;;455.87;435.53;;;;;;;24.78;44.01;99328.09;4912568;28;103520;-62
2023/09/25 08:12:20;;;;;;;498.57;475.23;;;;;;;24.15;43.58;99320.47;4906523;28;103493;-62
2023/09/25 08:14:49;;;;;;;511.30;487.85;;;;;;;24.83;42.63;99324.88;4911636;28;102641;-62
2023/09/25 08:17:17;;;;;;;570.15;544.38;;;;;;;25.58;41.63;99320.00;4909338;28;103840;-62
2023/09/25 08:19:45;;;;;;;647.05;614.33;;;;;;;26.38;40.40;99323.31;4909824;28;103364;-62
2023/09/25 08:22:13;;;;;;;624.50;594.72;;;;;;;26.52;41.47;99327.78;4903470;28;103490;-65
2023/09/25 08:24:41;;;;;;;646.40;612.03;;;;;;;25.30;40.20;99328.81;4906879;28;106517;-65
2023/09/25 08:27:09;;;;;;;671.17;636.53;;;;;;;25.83;40.64;99324.88;4914856;28;102671;-66
2023/09/25 08:29:37;;;;;;;659.15;628.25;;;;;;;25.84;41.54;99325.72;4908142;28;103354;-65
2023/09/25 08:32:07;;;;;;;783.80;741.30;;;;;;;26.46;40.21;99320.44;4910503;28;103133;-65
2023/09/25 08:34:35;;;;;;;721.47;683.55;;;;;;;25.56;40.68;99319.38;4910580;28;102664;-65
2023/09/25 08:37:03;;;;;;;715.63;678.40;;;;;;;26.97;39.30;99329.16;4909557;28;104238;-65
2023/09/25 08:39:33;;;;;;;616.53;585.07;;;;;;;25.67;41.03;99327.84;4916716;28;103238;-65
2023/09/25 08:42:01;;;;;;;576.42;547.85;;;;;;;25.97;41.64;99330.41;4912604;28;103327;-65
2023/09/25 08:44:29;;;;;;;623.50;593.45;;;;;;;27.42;39.73;99325.00;4913271;28;102630;-65
2023/09/25 08:46:58;;;;;;;602.60;573.30;;;;;;;27.72;39.71;99333.63;4912404;28;103007;-64
2023/09/25 08:49:36;;;;;;;477.83;456.90;;;;;;;28.56;36.99;99326.63;4916955;28;103310;-65
2023/09/25 08:52:05;;;;;;;535.50;510.67;;;;;;;27.50;38.22;99330.25;4913748;28;103124;-62
2023/09/25 08:54:33;;;;;;;546.92;521.42;;;;;;;26.60;38.96;99337.63;4914635;28;102733;-65
2023/09/25 08:57:01;;;;;;;502.77;480.52;;;;;;;27.41;38.88;99324.16;4912973;28;102739;-63
2023/09/25 08:59:32;;;;;;;532.38;508.13;;;;;;;27.89;38.49;99324.06;4914529;28;104359;-64
2023/09/25 09:01:59;;;;;;;523.25;500.15;;;;;;;27.12;38.49;99329.03;4912994;28;104175;-62
2023/09/25 09:04:29;;;;;;;568.75;542.65;;;;;;;25.98;39.78;99337.50;4920896;28;102657;-65
2023/09/25 09:06:57;;;;;;;523.40;500.33;;;;;;;26.58;39.08;99332.44;4918860;28;103912;-62
2023/09/25 09:09:25;;;;;;;606.83;578.30;;;;;;;27.69;38.78;99320.47;4910964;28;103229;-64
2023/09/25 09:11:57;;;;;;;612.47;583.92;;;;;;;26.86;38.92;99327.81;4920945;28;104325;-64
2023/09/25 09:14:35;;;;;;;433.60;416.65;;;;;;;28.46;37.49;99323.50;4916132;28;102932;-63
2023/09/25 09:17:05;;;;;;;385.08;370.73;;;;;;;28.69;36.62;99322.03;4918672;28;103791;-62
2023/09/25 09:19:51;;;;;;;409.30;393.95;;;;;;;29.24;36.03;99317.94;4912159;28;104322;-62
2023/09/25 09:22:27;;;;;;;328.65;316.75;;;;;;;29.10;35.99;99324.44;4917886;28;103894;-62
2023/09/25 09:24:56;;;;;;;373.90;360.38;;;;;;;28.58;37.79;99321.81;4917358;28;102726;-62
2023/09/25 09:27:27;;;;;;;344.20;331.95;;;;;;;28.90;37.19;99311.94;4911385;28;103884;-62
2023/09/25 09:30:04;;;;;;;423.27;407.50;;;;;;;28.04;35.99;99320.13;4909747;28;104191;-64
2023/09/25 09:32:34;;;;;;;465.50;447.83;;;;;;;28.03;37.21;99315.78;4916961;28;103380;-65
2023/09/25 09:35:08;;;;;;;310.00;298.98;;;;;;;29.23;35.05;99315.41;4919950;28;103201;-63
2023/09/25 09:37:46;;;;;;;318.48;306.92;;;;;;;29.59;35.09;99303.94;4913952;28;104271;-62
2023/09/25 09:40:15;;;;;;;181.07;174.52;;;;;;;30.18;34.40;99298.94;4911611;28;103311;-62
2023/09/25 09:42:44;;;;;;;364.73;351.55;;;;;;;27.89;36.44;99313.22;4914114;28;104189;-62
2023/09/25 09:45:13;;;;;;;328.40;316.87;;;;;;;28.88;35.24;99305.91;4913233;28;103044;-65
2023/09/25 09:47:46;;;;;;;383.13;369.45;;;;;;;28.82;36.76;99309.47;4923370;28;103575;-65
2023/09/25 09:50:19;;;;;;;446.08;429.17;;;;;;;27.67;37.46;99298.97;4921843;28;103704;-62
2023/09/25 09:52:47;;;;;;;374.30;360.57;;;;;;;28.68;35.76;99300.50;4919247;28;103283;-62
2023/09/25 09:55:17;;;;;;;314.45;303.27;;;;;;;29.31;35.22;99298.84;4913305;28;103770;-62
2023/09/25 09:57:49;;;;;;;236.90;228.30;;;;;;;28.69;33.96;99305.72;4912214;28;102801;-64
2023/09/25 10:00:19;;;;;;;396.75;382.50;;;;;;;27.32;36.46;99300.09;4915738;28;103892;-64
2023/09/25 10:02:48;;;;;;;369.93;356.60;;;;;;;28.43;35.69;99294.88;4916144;28;103229;-62
2023/09/25 10:05:20;;;;;;;345.95;333.70;;;;;;;28.74;35.67;99296.94;4926194;28;102766;-64
2023/09/25 10:08:09;;;;;;;387.57;373.47;;;;;;;28.65;36.28;99296.34;4913841;28;102977;-65
2023/09/25 10:10:39;;;;;;;308.35;297.35;;;;;;;29.04;34.49;99298.09;4914029;28;104123;-65
2023/09/25 10:13:14;;;;;;;212.68;204.98;;;;;;;30.22;33.76;99302.91;4913533;28;104092;-63
2023/09/25 10:15:53;;;;;;;413.60;398.35;;;;;;;29.39;34.03;99292.34;4916260;28;102903;-64
2023/09/25 10:18:21;;;;;;;428.73;412.67;;;;;;;29.48;34.94;99291.00;4912720;28;103893;-61
2023/09/25 10:21:08;;;;;;;408.83;393.77;;;;;;;28.70;35.10;99290.25;4912331;28;103664;-67
2023/09/25 10:23:48;;;;;;;568.65;546.00;;;;;;;27.43;37.48;99288.69;4910070;28;103299;-61
2023/09/25 10:26:19;;;;;;;547.65;526.22;;;;;;;27.86;37.21;99284.59;4914464;28;102668;-65
2023/09/25 10:28:58;;;;;;;401.50;386.70;;;;;;;28.53;35.79;99278.13;4918111;28;102592;-60
2023/09/25 10:31:29;;;;;;;593.50;569.30;;;;;;;25.94;39.00;99282.91;4913941;28;103753;-63
2023/09/25 10:34:02;;;;;;;496.55;477.75;;;;;;;28.15;36.72;99278.78;4918761;28;104133;-60
2023/09/25 10:36:39;;;;;;;523.08;502.85;;;;;;;28.91;37.24;99276.41;4913965;28;102680;-65
2023/09/25 10:39:09;;;;;;;560.13;538.40;;;;;;;27.09;37.61;99284.13;4919428;28;103039;-60
2023/09/25 10:41:38;;;;;;;459.48;442.13;;;;;;;29.30;35.89;99270.81;4905102;28;103862;-65
2023/09/25 10:44:09;;;;;;;449.70;432.70;;;;;;;29.42;35.37;99268.22;4914860;28;104130;-63
2023/09/25 10:46:40;;;;;;;470.30;452.75;;;;;;;29.41;35.32;99265.72;4907604;28;102763;-61
2023/09/25 10:49:11;;;;;;;418.73;403.02;;;;;;;30.00;33.89;99268.94;4912195;28;102860;-59
2023/09/25 10:51:41;;;;;;;536.20;515.22;;;;;;;26.33;38.17;99274.31;4908353;28;103690;-64
2023/09/25 10:54:11;;;;;;;505.77;486.35;;;;;;;28.26;36.24;99266.47;4911067;28;104105;-64
2023/09/25 10:56:40;;;;;;;593.13;569.77;;;;;;;26.13;39.13;99263.31;4910150;28;104929;-62
2023/09/25 10:59:08;;;;;;;494.88;476.15;;;;;;;29.85;34.65;99252.06;4915066;28;104109;-64
2023/09/25 11:01:36;;;;;;;439.70;423.10;;;;;;;30.00;33.93;99249.84;4914990;28;104021;-60
2023/09/25 11:04:05;;;;;;;450.10;432.90;;;;;;;29.64;33.63;99255.13;4918063;28;103326;-60
2023/09/25 11:06:35;;;;;;;335.83;323.52;;;;;;;30.83;32.80;99261.22;4925976;28;104544;-61
2023/09/25 11:09:11;;;;;;;496.13;476.63;;;;;;;30.03;33.60;99264.91;4915104;28;102924;-60